Time;durP1;ratioP1;P1;durP2;ratioP2;P2;SDS_P1;SDS_P2;PMS_P1;PMS_P2;Temp;Humidity;BMP_temperature;BMP_pressure;BME280_temperature;BME280_humidity;BME280_pressure;Samples;Min_cycle;Max_cycle;Signal;HPM_P1;HPM_P2
2023/11/04 00:02:18;;;;;;;14.80;3.22;;;16.30;79.80;;;;;;6154429;23;20057;-75
2023/11/04 00:04:44;;;;;;;11.40;2.55;;;16.30;79.60;;;;;;6154675;23;19998;-75
2023/11/04 00:07:10;;;;;;;13.45;2.40;;;16.30;79.50;;;;;;6154735;23;20041;-75
2023/11/04 00:09:37;;;;;;;13.30;2.78;;;16.30;79.40;;;;;;6128342;23;20002;-74
2023/11/04 00:12:03;;;;;;;12.13;2.80;;;16.30;79.30;;;;;;6154393;23;20009;-74
2023/11/04 00:14:29;;;;;;;15.43;2.55;;;16.30;79.30;;;;;;6154671;23;20029;-75
2023/11/04 00:16:55;;;;;;;16.88;3.20;;;16.30;79.40;;;;;;6154399;23;20348;-74
2023/11/04 00:19:20;;;;;;;15.57;3.08;;;16.30;79.30;;;;;;6153870;23;20391;-76
2023/11/04 00:21:46;;;;;;;16.35;2.92;;;16.30;79.30;;;;;;6154247;23;20073;-75
2023/11/04 00:24:12;;;;;;;15.32;2.90;;;16.30;79.30;;;;;;6154297;23;20017;-74
2023/11/04 00:26:38;;;;;;;19.10;3.20;;;16.40;79.40;;;;;;6154336;23;20063;-75
2023/11/04 00:29:06;;;;;;;17.27;3.67;;;16.40;79.40;;;;;;6154285;23;20041;-74
2023/11/04 00:31:35;;;;;;;12.38;2.47;;;16.40;79.40;;;;;;6156176;23;20005;-74
2023/11/04 00:34:02;;;;;;;10.98;3.13;;;16.40;79.20;;;;;;6156260;23;20002;-75
2023/11/04 00:36:29;;;;;;;17.73;2.97;;;16.50;79.40;;;;;;6156198;23;20017;-73
2023/11/04 00:38:55;;;;;;;15.75;3.92;;;16.60;79.40;;;;;;6156715;23;20042;-74
2023/11/04 00:41:21;;;;;;;15.82;3.00;;;16.60;79.30;;;;;;6156255;23;20005;-74
2023/11/04 00:43:47;;;;;;;23.98;3.95;;;16.70;79.50;;;;;;6156118;23;20335;-75
2023/11/04 00:46:13;;;;;;;20.17;3.40;;;16.70;79.80;;;;;;6156216;23;20008;-74
2023/11/04 00:48:39;;;;;;;19.92;3.70;;;16.70;79.80;;;;;;6155925;23;20002;-74
2023/11/04 00:51:06;;;;;;;17.08;2.72;;;16.70;80.00;;;;;;6155996;23;20001;-74
2023/11/04 00:53:31;;;;;;;19.35;3.33;;;16.80;80.20;;;;;;6155914;23;20006;-74
2023/11/04 00:55:57;;;;;;;16.08;3.15;;;16.80;80.30;;;;;;6156048;23;20044;-75
2023/11/04 00:58:23;;;;;;;15.25;2.92;;;16.80;80.30;;;;;;6155980;23;20415;-75
2023/11/04 01:00:48;;;;;;;14.57;3.13;;;16.80;80.00;;;;;;6155999;23;20037;-74
2023/11/04 01:03:15;;;;;;;18.90;3.67;;;16.90;80.10;;;;;;6156228;23;20053;-74
2023/11/04 01:05:41;;;;;;;13.23;3.13;;;16.90;79.90;;;;;;6156480;23;20005;-73
2023/11/04 01:08:06;;;;;;;17.50;3.47;;;16.90;79.80;;;;;;6155603;23;20036;-74
2023/11/04 01:10:32;;;;;;;15.75;3.13;;;16.90;79.80;;;;;;6156023;23;20088;-73
2023/11/04 01:12:58;;;;;;;16.17;2.70;;;16.90;79.60;;;;;;6155396;23;20472;-74
2023/11/04 01:15:24;;;;;;;15.63;3.25;;;16.90;79.60;;;;;;6155691;23;20013;-75
2023/11/04 01:17:49;;;;;;;16.45;2.60;;;16.80;79.50;;;;;;6155958;23;19998;-74
2023/11/04 01:20:15;;;;;;;13.30;2.75;;;16.80;79.60;;;;;;6155571;23;20008;-74
2023/11/04 01:22:41;;;;;;;18.88;3.30;;;16.80;79.60;;;;;;6128946;23;20010;-72
2023/11/04 01:25:08;;;;;;;16.23;2.67;;;16.80;79.40;;;;;;6155696;23;20072;-74
2023/11/04 01:27:33;;;;;;;11.48;2.65;;;16.80;79.50;;;;;;6129525;23;20076;-74
2023/11/04 01:30:00;;;;;;;18.83;3.00;;;16.70;79.80;;;;;;6155643;23;20328;-74
2023/11/04 01:32:26;;;;;;;17.70;2.85;;;16.60;80.20;;;;;;6155380;23;20432;-75
2023/11/04 01:34:52;;;;;;;14.07;3.25;;;16.60;80.50;;;;;;6155461;23;19998;-74
2023/11/04 01:37:19;;;;;;;13.57;3.10;;;16.60;80.70;;;;;;6155462;23;20009;-75
2023/11/04 01:39:45;;;;;;;20.92;3.60;;;16.50;80.80;;;;;;6155626;23;20008;-75
2023/11/04 01:42:10;;;;;;;19.15;3.63;;;16.50;80.70;;;;;;6154964;23;20005;-75
2023/11/04 01:44:36;;;;;;;13.32;2.70;;;16.50;80.80;;;;;;6155411;23;20001;-74
2023/11/04 01:47:02;;;;;;;15.55;2.70;;;16.50;80.90;;;;;;6155333;23;20080;-75
2023/11/04 01:49:28;;;;;;;20.13;3.20;;;16.40;81.10;;;;;;6155292;23;20132;-74
2023/11/04 01:51:57;;;;;;;19.27;3.22;;;16.40;81.10;;;;;;6155377;23;20006;-74
2023/11/04 01:54:24;;;;;;;12.15;3.00;;;16.40;81.00;;;;;;6155172;23;20500;-75
2023/11/04 01:56:49;;;;;;;18.42;2.88;;;16.40;81.00;;;;;;6155112;23;20017;-74
2023/11/04 01:59:16;;;;;;;15.80;3.28;;;16.40;81.00;;;;;;6154827;23;19998;-75
2023/11/04 02:01:45;;;;;;;18.33;3.25;;;16.40;81.00;;;;;;6128851;23;20091;-75
2023/11/04 02:04:12;;;;;;;17.73;3.00;;;16.40;81.20;;;;;;6154910;23;20428;-75
2023/11/04 02:06:38;;;;;;;22.08;3.75;;;16.30;81.10;;;;;;6155173;23;20101;-73
2023/11/04 02:09:04;;;;;;;19.52;3.22;;;16.30;81.00;;;;;;6154898;23;20337;-69
2023/11/04 02:11:29;;;;;;;17.45;3.05;;;16.30;81.00;;;;;;6154739;23;20001;-73
2023/11/04 02:13:55;;;;;;;16.55;3.38;;;16.30;81.20;;;;;;6154856;23;20032;-74
2023/11/04 02:16:21;;;;;;;18.80;3.58;;;16.30;81.30;;;;;;6154991;23;20432;-74
2023/11/04 02:18:47;;;;;;;10.13;2.63;;;16.20;81.30;;;;;;6155009;23;20009;-72
2023/11/04 02:21:13;;;;;;;16.63;4.07;;;16.20;81.50;;;;;;6154775;23;20006;-75
2023/11/04 02:23:39;;;;;;;14.23;2.70;;;16.10;81.40;;;;;;6154513;23;20415;-74
2023/11/04 02:26:05;;;;;;;17.75;3.05;;;16.10;81.50;;;;;;6154647;23;20434;-73
2023/11/04 02:28:31;;;;;;;13.48;2.45;;;16.10;81.70;;;;;;6154837;23;20079;-74
2023/11/04 02:30:56;;;;;;;12.55;3.05;;;16.10;81.70;;;;;;6154954;23;20005;-75
2023/11/04 02:33:22;;;;;;;10.85;2.40;;;16.10;81.70;;;;;;6154911;23;20025;-75
2023/11/04 02:35:51;;;;;;;15.07;3.08;;;16.20;81.60;;;;;;6154917;23;20028;-75
2023/11/04 02:38:17;;;;;;;11.70;2.95;;;16.20;81.60;;;;;;6154684;23;20005;-74
2023/11/04 02:40:43;;;;;;;18.02;3.83;;;16.30;81.50;;;;;;6154584;23;20432;-74
2023/11/04 02:43:09;;;;;;;18.88;3.35;;;16.30;81.30;;;;;;6154689;23;20129;-73
2023/11/04 02:45:35;;;;;;;16.88;3.03;;;16.30;81.20;;;;;;6154677;23;20080;-75
2023/11/04 02:48:01;;;;;;;20.48;3.78;;;16.30;81.00;;;;;;6154508;23;20442;-73
2023/11/04 02:50:28;;;;;;;14.88;3.30;;;16.30;81.00;;;;;;6154736;23;20013;-74
2023/11/04 02:52:53;;;;;;;16.58;3.10;;;16.20;81.00;;;;;;6154403;23;20076;-73
2023/11/04 02:55:19;;;;;;;20.27;3.15;;;16.20;80.90;;;;;;6154554;23;20385;-75
2023/11/04 02:57:46;;;;;;;15.32;3.28;;;16.20;81.00;;;;;;6154839;23;20008;-75
2023/11/04 03:00:14;;;;;;;15.57;3.55;;;16.10;81.00;;;;;;6154627;23;20438;-74
2023/11/04 03:02:41;;;;;;;12.32;2.72;;;16.10;81.10;;;;;;6154412;23;20006;-73
2023/11/04 03:05:07;;;;;;;14.55;3.10;;;16.10;81.10;;;;;;6154232;23;20072;-75
2023/11/04 03:07:32;;;;;;;17.00;3.15;;;16.00;81.30;;;;;;6154740;23;20005;-74
2023/11/04 03:09:58;;;;;;;14.15;2.85;;;16.00;81.80;;;;;;6154480;23;20048;-74
2023/11/04 03:12:24;;;;;;;18.88;3.38;;;16.00;81.30;;;;;;6154373;23;20072;-75
2023/11/04 03:14:50;;;;;;;18.48;3.05;;;16.00;81.20;;;;;;6154406;23;19997;-74
2023/11/04 03:17:16;;;;;;;19.67;3.28;;;16.00;81.30;;;;;;6154247;23;20010;-74
2023/11/04 03:19:45;;;;;;;16.83;3.38;;;16.00;81.10;;;;;;6154320;23;20005;-75
2023/11/04 03:22:12;;;;;;;23.92;3.50;;;16.00;81.20;;;;;;6154778;23;20317;-74
2023/11/04 03:24:43;;;;;;;16.52;3.10;;;16.00;81.20;;;;;;6153879;23;20017;-74
2023/11/04 03:27:09;;;;;;;17.38;3.08;;;16.00;81.10;;;;;;6154188;23;20494;-74
2023/11/04 03:29:35;;;;;;;17.02;3.55;;;16.10;81.40;;;;;;6154425;23;20073;-75
2023/11/04 03:32:01;;;;;;;16.75;3.13;;;16.00;81.40;;;;;;6154306;23;20033;-74
2023/11/04 03:34:26;;;;;;;11.13;2.53;;;16.00;81.60;;;;;;6154059;23;19997;-73
2023/11/04 03:36:52;;;;;;;18.20;3.67;;;15.90;81.60;;;;;;6153762;23;20010;-74
2023/11/04 03:39:18;;;;;;;16.75;3.30;;;15.90;82.00;;;;;;6154027;23;20086;-74
2023/11/04 03:41:44;;;;;;;18.30;3.47;;;15.90;82.00;;;;;;6127573;23;20009;-70
2023/11/04 03:44:10;;;;;;;21.00;3.22;;;15.80;82.10;;;;;;6127674;23;20080;-74
2023/11/04 03:46:35;;;;;;;15.50;3.45;;;15.80;82.20;;;;;;6154109;23;20333;-74
2023/11/04 03:49:01;;;;;;;17.38;3.42;;;15.80;82.30;;;;;;6154073;23;20033;-73
2023/11/04 03:51:27;;;;;;;18.38;3.30;;;15.80;82.40;;;;;;6153850;23;19997;-74
2023/11/04 03:53:53;;;;;;;21.55;3.17;;;15.80;82.40;;;;;;6153845;23;20021;-71
2023/11/04 03:56:18;;;;;;;16.83;3.70;;;15.80;82.60;;;;;;6154038;23;20392;-74
2023/11/04 03:58:44;;;;;;;15.30;3.15;;;15.80;82.60;;;;;;6154100;23;20332;-74
2023/11/04 04:01:10;;;;;;;16.25;3.50;;;15.80;83.10;;;;;;6153618;23;20085;-74
2023/11/04 04:03:36;;;;;;;16.30;3.08;;;15.80;82.70;;;;;;6153638;23;20004;-74
2023/11/04 04:06:01;;;;;;;20.52;3.35;;;15.80;82.50;;;;;;6155264;23;20428;-75
2023/11/04 04:08:27;;;;;;;15.85;2.80;;;15.80;82.40;;;;;;6156338;23;19998;-75
2023/11/04 04:10:53;;;;;;;19.00;4.30;;;15.80;82.50;;;;;;6156062;23;20005;-75
2023/11/04 04:13:18;;;;;;;22.40;3.45;;;15.70;82.70;;;;;;6155830;23;20436;-75
2023/11/04 04:15:44;;;;;;;18.17;4.32;;;15.60;82.80;;;;;;6155824;23;20108;-74
2023/11/04 04:18:10;;;;;;;15.20;3.17;;;15.60;83.00;;;;;;6156010;23;20432;-74
2023/11/04 04:20:36;;;;;;;15.90;3.08;;;15.50;83.00;;;;;;6155975;23;20044;-74
2023/11/04 04:23:02;;;;;;;15.20;3.15;;;15.50;83.20;;;;;;6155940;23;20006;-74
2023/11/04 04:25:28;;;;;;;19.23;3.00;;;15.50;83.30;;;;;;6156170;23;20061;-75
2023/11/04 04:27:54;;;;;;;15.45;2.70;;;15.50;83.50;;;;;;6156227;23;19998;-75
2023/11/04 04:30:20;;;;;;;15.90;2.83;;;15.50;83.60;;;;;;6156056;23;20002;-74
2023/11/04 04:32:46;;;;;;;20.75;3.55;;;15.50;83.70;;;;;;6155901;23;20012;-74
2023/11/04 04:35:12;;;;;;;12.80;3.47;;;15.50;83.80;;;;;;6156039;23;20076;-76
2023/11/04 04:37:38;;;;;;;21.23;3.50;;;15.50;83.80;;;;;;6155973;23;20466;-75
2023/11/04 04:40:05;;;;;;;17.83;3.28;;;15.50;83.90;;;;;;6155733;23;20001;-75
2023/11/04 04:42:31;;;;;;;11.73;2.35;;;15.50;84.10;;;;;;6156128;23;20008;-73
2023/11/04 04:44:57;;;;;;;12.88;2.80;;;15.50;83.90;;;;;;6129666;23;20036;-73
2023/11/04 04:47:23;;;;;;;11.80;2.95;;;15.50;83.70;;;;;;6156521;23;20002;-75
2023/11/04 04:49:48;;;;;;;11.70;2.30;;;15.50;83.70;;;;;;6155653;23;20538;-75
2023/11/04 04:52:16;;;;;;;12.80;3.20;;;15.50;83.60;;;;;;6155960;23;19999;-74
2023/11/04 04:54:41;;;;;;;13.88;2.70;;;15.50;83.50;;;;;;6155962;23;20076;-75
2023/11/04 04:57:07;;;;;;;12.80;2.05;;;15.50;83.60;;;;;;6155869;23;20006;-73
2023/11/04 04:59:33;;;;;;;16.77;2.80;;;15.50;83.40;;;;;;6155864;23;20004;-73
2023/11/04 05:02:03;;;;;;;14.27;2.72;;;15.50;83.40;;;;;;6155648;23;20308;-74
2023/11/04 05:04:29;;;;;;;13.88;3.13;;;15.50;83.60;;;;;;6155716;23;20001;-74
2023/11/04 05:06:55;;;;;;;13.23;2.20;;;15.50;84.40;;;;;;6155923;23;20120;-74
2023/11/04 05:09:21;;;;;;;12.15;2.47;;;15.40;83.80;;;;;;6156108;23;20367;-74
2023/11/04 05:11:47;;;;;;;15.20;3.05;;;15.30;84.10;;;;;;6155847;23;20005;-74
2023/11/04 05:14:13;;;;;;;11.85;2.78;;;15.30;84.30;;;;;;6155782;23;20002;-74
2023/11/04 05:16:39;;;;;;;18.10;4.22;;;15.30;84.40;;;;;;6155376;23;20017;-76
2023/11/04 05:19:05;;;;;;;12.88;4.25;;;15.20;84.60;;;;;;6155500;23;20005;-75
2023/11/04 05:21:31;;;;;;;11.65;2.95;;;15.10;84.60;;;;;;6155754;23;20002;-73
2023/11/04 05:23:56;;;;;;;14.50;3.58;;;15.10;84.80;;;;;;6155478;23;20022;-73
2023/11/04 05:26:22;;;;;;;12.55;2.47;;;15.10;85.10;;;;;;6155523;23;20041;-76
2023/11/04 05:28:48;;;;;;;9.52;2.35;;;15.20;84.90;;;;;;6155261;23;20456;-75
2023/11/04 05:31:14;;;;;;;16.02;3.30;;;15.20;84.70;;;;;;6155510;23;20008;-75
2023/11/04 05:33:40;;;;;;;12.95;2.22;;;15.20;84.70;;;;;;6155423;23;20040;-75
2023/11/04 05:36:06;;;;;;;13.50;2.05;;;15.20;84.50;;;;;;6155462;23;20060;-75
2023/11/04 05:38:32;;;;;;;11.80;2.50;;;15.20;84.50;;;;;;6155458;23;20013;-74
2023/11/04 05:40:58;;;;;;;7.78;2.05;;;15.20;84.20;;;;;;6155017;23;20006;-75
2023/11/04 05:43:25;;;;;;;12.18;1.95;;;15.20;83.80;;;;;;6155171;23;20029;-74
2023/11/04 05:45:51;;;;;;;10.38;2.67;;;15.20;84.10;;;;;;6155120;23;20060;-75
2023/11/04 05:48:19;;;;;;;10.27;2.85;;;15.20;84.20;;;;;;6155213;23;20006;-74
2023/11/04 05:50:45;;;;;;;12.23;2.88;;;15.20;84.30;;;;;;6155147;23;20285;-75
2023/11/04 05:53:12;;;;;;;13.82;2.58;;;15.10;84.50;;;;;;6154872;23;20324;-75
2023/11/04 05:55:37;;;;;;;13.60;2.80;;;15.10;84.70;;;;;;6128563;23;20097;-74
2023/11/04 05:58:04;;;;;;;12.57;2.85;;;15.20;84.80;;;;;;6155291;23;20388;-75
2023/11/04 06:00:30;;;;;;;8.18;2.00;;;15.10;84.50;;;;;;6155207;23;20088;-75
2023/11/04 06:02:56;;;;;;;9.07;2.17;;;15.10;84.20;;;;;;6155127;23;20102;-74
2023/11/04 06:05:23;;;;;;;10.73;2.58;;;15.10;84.20;;;;;;6155496;23;20017;-74
2023/11/04 06:07:50;;;;;;;9.82;2.10;;;15.10;84.10;;;;;;6155204;23;20059;-74
2023/11/04 06:10:16;;;;;;;8.80;2.17;;;15.10;84.20;;;;;;6154992;23;20069;-74
2023/11/04 06:12:42;;;;;;;8.90;1.90;;;15.10;83.90;;;;;;6154724;23;20415;-75
2023/11/04 06:15:08;;;;;;;8.90;2.30;;;15.10;83.50;;;;;;6154451;23;20010;-72
2023/11/04 06:17:34;;;;;;;6.70;1.73;;;15.20;83.30;;;;;;6155353;23;20002;-74
2023/11/04 06:20:00;;;;;;;10.57;2.20;;;15.30;83.00;;;;;;6155033;23;19997;-74
2023/11/04 06:22:25;;;;;;;11.65;2.50;;;15.30;82.70;;;;;;6155038;23;20001;-74
2023/11/04 06:24:54;;;;;;;8.15;2.00;;;15.30;82.80;;;;;;6154718;23;20021;-74
2023/11/04 06:27:20;;;;;;;8.98;1.98;;;15.20;82.70;;;;;;6154552;23;20076;-74
2023/11/04 06:29:46;;;;;;;7.80;2.00;;;15.20;82.80;;;;;;6154762;23;20002;-74
2023/11/04 06:32:12;;;;;;;9.25;1.98;;;15.10;82.70;;;;;;6128763;23;20076;-74
2023/11/04 06:34:39;;;;;;;9.85;1.83;;;15.10;82.80;;;;;;6154831;23;20016;-74
2023/11/04 06:37:05;;;;;;;8.75;2.72;;;15.10;82.80;;;;;;6154790;23;20021;-74
2023/11/04 06:39:31;;;;;;;8.95;1.90;;;15.10;83.00;;;;;;6154919;23;19997;-74
2023/11/04 06:41:57;;;;;;;6.35;2.30;;;15.10;82.90;;;;;;6154773;23;20085;-75
2023/11/04 06:44:23;;;;;;;9.57;2.63;;;15.70;82.90;;;;;;6154998;23;20317;-75
2023/11/04 06:46:48;;;;;;;8.10;2.30;;;15.60;82.40;;;;;;6155012;23;20004;-75
2023/11/04 06:49:15;;;;;;;7.00;1.95;;;15.60;82.50;;;;;;6154603;23;20028;-75
2023/11/04 06:51:41;;;;;;;11.35;2.45;;;15.50;82.90;;;;;;6154674;23;19997;-75
2023/11/04 06:54:07;;;;;;;9.10;2.47;;;15.40;82.60;;;;;;6128076;23;20317;-74
2023/11/04 06:56:33;;;;;;;10.48;2.40;;;15.30;82.80;;;;;;6154644;23;20076;-75
2023/11/04 06:58:59;;;;;;;7.82;2.25;;;15.30;83.00;;;;;;6128766;23;20009;-75
2023/11/04 07:01:26;;;;;;;9.00;2.45;;;15.30;83.20;;;;;;6154988;23;20006;-75
2023/11/04 07:03:52;;;;;;;7.53;2.28;;;15.20;83.20;;;;;;6154739;23;20020;-75
2023/11/04 07:06:18;;;;;;;9.23;3.08;;;15.20;83.50;;;;;;6154591;23;20001;-74
2023/11/04 07:08:45;;;;;;;11.98;2.78;;;15.00;83.60;;;;;;6154589;23;20009;-74
2023/11/04 07:11:12;;;;;;;10.32;2.60;;;15.10;84.00;;;;;;6154415;23;20008;-75
2023/11/04 07:13:42;;;;;;;12.48;3.35;;;15.50;83.90;;;;;;6154659;23;20451;-75
2023/11/04 07:16:11;;;;;;;8.80;3.20;;;15.80;83.70;;;;;;6154330;23;20064;-75
2023/11/04 07:18:38;;;;;;;10.52;3.33;;;15.80;83.10;;;;;;6154560;23;20012;-74
2023/11/04 07:21:05;;;;;;;11.63;3.05;;;15.80;83.00;;;;;;6154289;23;20055;-75
2023/11/04 07:23:31;;;;;;;12.65;3.65;;;15.70;83.20;;;;;;6154677;23;20044;-75
2023/11/04 07:25:57;;;;;;;7.07;2.22;;;15.60;83.00;;;;;;6154487;23;20008;-76
2023/11/04 07:28:23;;;;;;;10.93;2.50;;;15.60;83.00;;;;;;6154589;23;20479;-75
2023/11/04 07:30:51;;;;;;;8.48;2.42;;;15.50;83.00;;;;;;6154333;23;20021;-75
2023/11/04 07:33:19;;;;;;;12.20;3.15;;;15.60;83.00;;;;;;6127596;23;20096;-75
2023/11/04 07:35:46;;;;;;;6.65;2.33;;;15.70;82.80;;;;;;6154275;23;20013;-75
2023/11/04 07:38:12;;;;;;;10.73;2.22;;;15.70;82.60;;;;;;6154300;23;20005;-75
2023/11/04 07:40:39;;;;;;;6.75;2.30;;;15.70;82.50;;;;;;6154020;23;20005;-75
2023/11/04 07:43:05;;;;;;;7.47;2.47;;;15.70;82.50;;;;;;6154152;23;20049;-76
2023/11/04 07:45:32;;;;;;;7.75;2.28;;;15.80;82.70;;;;;;6154570;23;20093;-75
2023/11/04 07:47:58;;;;;;;7.45;2.42;;;15.80;82.50;;;;;;6154448;23;19997;-73
2023/11/04 07:50:24;;;;;;;7.72;2.42;;;15.80;82.40;;;;;;6128119;23;20022;-76
2023/11/04 07:52:50;;;;;;;7.82;2.03;;;15.80;82.60;;;;;;6153801;23;20010;-75
2023/11/04 07:55:15;;;;;;;10.68;2.97;;;15.80;82.50;;;;;;6154537;23;20380;-75
2023/11/04 07:57:42;;;;;;;7.47;2.33;;;15.80;82.50;;;;;;6154543;23;20001;-75
2023/11/04 08:00:10;;;;;;;8.55;2.05;;;15.80;82.30;;;;;;6155796;23;20004;-91
2023/11/04 08:02:37;;;;;;;5.47;2.00;;;15.80;82.30;;;;;;6155408;23;20029;-81
2023/11/04 08:05:09;;;;;;;7.95;2.08;;;15.70;82.10;;;;;;6157334;23;20495;-80
2023/11/04 08:07:35;;;;;;;8.07;2.53;;;15.70;82.30;;;;;;6158449;23;20001;-79
2023/11/04 08:10:03;;;;;;;8.18;2.20;;;15.70;82.30;;;;;;6155200;23;20005;-83
2023/11/04 08:12:29;;;;;;;8.38;2.35;;;15.70;82.30;;;;;;6155381;23;20041;-83
2023/11/04 08:14:55;;;;;;;8.25;2.13;;;15.70;82.50;;;;;;6154995;23;19998;-80
2023/11/04 08:17:23;;;;;;;7.22;1.58;;;15.70;82.40;;;;;;6154598;23;20076;-85
2023/11/04 08:19:49;;;;;;;5.85;2.10;;;15.70;82.60;;;;;;6161390;23;20021;-82
2023/11/04 08:22:15;;;;;;;6.65;1.88;;;15.60;82.30;;;;;;6155380;23;20002;-78
2023/11/04 08:24:42;;;;;;;5.88;1.77;;;15.70;82.40;;;;;;6154749;23;20072;-77
2023/11/04 08:27:08;;;;;;;6.13;1.95;;;15.80;82.40;;;;;;6154148;23;20006;-80
2023/11/04 08:29:34;;;;;;;8.32;2.75;;;15.80;82.40;;;;;;6154232;23;20432;-79
2023/11/04 08:32:00;;;;;;;6.85;1.77;;;15.90;82.50;;;;;;6128384;23;20048;-80
2023/11/04 08:34:26;;;;;;;5.20;2.00;;;15.80;82.30;;;;;;6154329;23;20010;-82
2023/11/04 08:36:52;;;;;;;11.27;2.75;;;15.90;82.50;;;;;;6154382;23;20025;-79
2023/11/04 08:39:18;;;;;;;7.82;2.60;;;15.90;82.50;;;;;;6154293;23;20005;-81
2023/11/04 08:41:46;;;;;;;5.72;2.40;;;16.00;82.50;;;;;;6154836;23;20175;-85
2023/11/04 08:44:14;;;;;;;7.90;2.65;;;16.10;83.40;;;;;;6155334;23;20004;-84
2023/11/04 08:46:40;;;;;;;5.45;2.08;;;16.10;82.50;;;;;;6154565;23;20096;-82
2023/11/04 08:49:06;;;;;;;8.07;2.42;;;16.20;82.40;;;;;;6155334;23;20059;-83
2023/11/04 08:51:33;;;;;;;8.13;1.92;;;16.20;82.40;;;;;;6132694;23;20006;-83
2023/11/04 08:53:59;;;;;;;5.57;2.05;;;16.20;82.20;;;;;;6157423;23;20002;-83
2023/11/04 08:56:25;;;;;;;6.13;2.13;;;16.30;82.30;;;;;;6155882;23;20068;-82
2023/11/04 08:58:53;;;;;;;6.15;2.13;;;16.30;82.20;;;;;;6156097;23;20002;-82
2023/11/04 09:01:24;;;;;;;5.65;2.03;;;16.40;82.00;;;;;;6156293;23;20002;-84
2023/11/04 09:03:51;;;;;;;7.40;2.13;;;16.50;82.20;;;;;;6155885;23;20333;-84
2023/11/04 09:06:16;;;;;;;9.43;2.22;;;16.60;82.20;;;;;;6155923;23;20009;-84
2023/11/04 09:08:43;;;;;;;7.10;2.00;;;16.60;82.00;;;;;;6156065;23;20065;-83
2023/11/04 09:11:09;;;;;;;5.05;1.65;;;16.70;81.90;;;;;;6155996;23;20072;-82
2023/11/04 09:13:34;;;;;;;8.15;1.80;;;16.70;81.30;;;;;;6156021;23;20081;-83
2023/11/04 09:16:02;;;;;;;6.97;2.15;;;16.80;81.50;;;;;;6156138;23;20424;-75
2023/11/04 09:18:28;;;;;;;10.50;2.08;;;16.90;81.20;;;;;;6157122;23;20006;-88
2023/11/04 09:20:54;;;;;;;6.25;2.10;;;16.90;81.00;;;;;;6157911;23;20011;-82
2023/11/04 09:23:20;;;;;;;6.65;2.08;;;17.00;81.50;;;;;;6155505;23;20009;-82
2023/11/04 09:25:46;;;;;;;9.32;1.70;;;17.10;80.50;;;;;;6155472;23;20005;-82
2023/11/04 09:28:12;;;;;;;7.40;2.08;;;17.10;80.30;;;;;;6155364;23;20001;-81
2023/11/04 09:30:38;;;;;;;11.40;2.35;;;17.20;80.00;;;;;;6156150;23;20009;-84
2023/11/04 09:33:04;;;;;;;12.60;2.13;;;17.30;79.80;;;;;;6156622;23;20076;-81
2023/11/04 09:35:29;;;;;;;5.65;1.77;;;17.40;79.50;;;;;;6129896;23;20393;-81
2023/11/04 09:37:55;;;;;;;10.50;2.35;;;17.40;79.20;;;;;;6155882;23;20447;-85
2023/11/04 09:40:21;;;;;;;8.50;2.15;;;17.40;79.10;;;;;;6155866;23;20002;-81
2023/11/04 09:42:47;;;;;;;10.90;3.00;;;17.50;78.90;;;;;;6155810;23;19998;-82
2023/11/04 09:45:15;;;;;;;11.88;2.97;;;17.60;78.90;;;;;;6155983;23;20032;-82
2023/11/04 09:47:41;;;;;;;9.77;2.40;;;17.70;78.70;;;;;;6156565;23;20001;-85
2023/11/04 09:50:08;;;;;;;8.18;1.98;;;17.70;78.30;;;;;;6159318;23;20085;-87
2023/11/04 09:52:38;;;;;;;6.72;2.45;;;17.80;78.10;;;;;;6155431;23;20035;-82
2023/11/04 09:55:05;;;;;;;10.50;2.13;;;17.90;77.60;;;;;;6153941;23;20517;-82
2023/11/04 09:57:32;;;;;;;11.27;2.28;;;17.90;76.70;;;;;;6155296;23;20456;-83
2023/11/04 10:00:01;;;;;;;7.30;1.98;;;18.00;76.10;;;;;;6155098;23;20009;-82
2023/11/04 10:02:27;;;;;;;8.18;1.73;;;18.10;75.60;;;;;;6154728;23;20067;-81
2023/11/04 10:04:53;;;;;;;9.02;1.80;;;18.10;74.90;;;;;;6155448;23;20391;-82
2023/11/04 10:07:19;;;;;;;10.70;2.53;;;18.20;73.70;;;;;;6129773;23;20010;-83
2023/11/04 10:09:44;;;;;;;8.95;2.70;;;18.20;73.60;;;;;;6157258;23;20077;-84
2023/11/04 10:12:12;;;;;;;7.45;1.75;;;18.30;72.80;;;;;;6160006;23;19997;-83
2023/11/04 10:14:38;;;;;;;8.20;2.20;;;18.40;72.80;;;;;;6158861;23;20013;-83
2023/11/04 10:17:05;;;;;;;9.35;2.63;;;18.40;71.50;;;;;;6154979;23;20014;-83
2023/11/04 10:19:33;;;;;;;8.35;1.80;;;18.50;71.60;;;;;;6155309;23;20008;-83
2023/11/04 10:21:59;;;;;;;10.32;2.15;;;18.50;70.80;;;;;;6155136;23;20144;-82
2023/11/04 10:24:25;;;;;;;9.25;2.45;;;18.70;71.10;;;;;;6155889;23;20014;-81
2023/11/04 10:26:51;;;;;;;9.88;2.22;;;18.80;70.90;;;;;;6155885;23;20081;-83
2023/11/04 10:29:16;;;;;;;8.73;2.22;;;18.80;70.10;;;;;;6155149;23;20002;-83
2023/11/04 10:31:45;;;;;;;10.00;2.00;;;18.90;69.80;;;;;;6155009;23;20328;-82
2023/11/04 10:34:13;;;;;;;7.18;1.80;;;18.90;69.00;;;;;;6155086;23;20551;-82
2023/11/04 10:36:44;;;;;;;5.47;1.50;;;19.00;68.80;;;;;;6154652;23;20009;-82
2023/11/04 10:39:12;;;;;;;8.77;2.00;;;18.90;68.10;;;;;;6154725;23;20002;-82
2023/11/04 10:41:44;;;;;;;9.30;2.33;;;18.90;68.20;;;;;;6155967;23;20069;-82
2023/11/04 10:44:32;;;;;;;7.38;1.90;;;19.00;68.20;;;;;;6156298;23;20005;-83
2023/11/04 10:47:38;;;;;;;7.38;1.60;;;18.90;67.80;;;;;;6129696;23;20010;-83
2023/11/04 10:50:15;;;;;;;5.60;1.48;;;18.90;65.20;;;;;;6155604;23;20001;-82
2023/11/04 10:53:11;;;;;;;8.13;1.73;;;18.90;66.50;;;;;;6156153;23;20035;-81
2023/11/04 10:55:48;;;;;;;5.55;1.65;;;18.80;66.30;;;;;;6154129;23;20080;-81
2023/11/04 10:58:22;;;;;;;8.52;1.70;;;18.90;66.40;;;;;;6165329;23;19998;-81
2023/11/04 11:00:49;;;;;;;5.93;1.50;;;18.90;65.70;;;;;;6176646;23;20094;-83
2023/11/04 11:03:15;;;;;;;11.25;1.95;;;18.90;65.10;;;;;;6181507;23;20020;-81
2023/11/04 11:05:42;;;;;;;5.60;1.25;;;19.00;64.90;;;;;;6161880;23;20052;-81
2023/11/04 11:08:07;;;;;;;7.00;1.95;;;19.10;64.70;;;;;;6155811;23;20001;-81
2023/11/04 11:11:12;;;;;;;8.82;1.90;;;19.20;64.30;;;;;;6156042;23;20084;-81
2023/11/04 11:13:39;;;;;;;;;;;19.40;63.60;;;;;;6154615;23;20400;-82
2023/11/04 11:16:05;;;;;;;6.72;1.48;;;19.60;62.00;;;;;;6155392;23;19908;-83
2023/11/04 11:18:31;;;;;;;7.35;1.88;;;19.80;63.30;;;;;;6155873;23;19997;-82
2023/11/04 11:21:12;;;;;;;7.35;1.63;;;19.80;61.70;;;;;;6155700;23;20067;-83
2023/11/04 11:23:38;;;;;;;6.70;2.25;;;19.90;61.10;;;;;;6128970;23;20029;-82
2023/11/04 11:26:11;;;;;;;4.22;1.63;;;20.00;60.70;;;;;;6154971;23;20001;-82
2023/11/04 11:28:39;;;;;;;5.80;1.52;;;20.10;60.00;;;;;;6155189;23;20440;-81
2023/11/04 11:31:12;;;;;;;7.95;1.85;;;20.10;59.90;;;;;;6154759;23;20004;-81
2023/11/04 11:33:41;;;;;;;7.93;1.38;;;20.10;59.30;;;;;;6155202;23;19998;-82
2023/11/04 11:36:10;;;;;;;5.13;1.48;;;20.10;59.50;;;;;;6129314;23;20029;-81
2023/11/04 11:38:37;;;;;;;3.28;1.05;;;20.00;59.80;;;;;;6155503;23;20005;-82
2023/11/04 11:41:04;;;;;;;5.72;1.90;;;20.10;59.20;;;;;;6155458;23;20001;-82
2023/11/04 11:43:30;;;;;;;5.65;1.60;;;20.00;58.90;;;;;;6155092;23;20065;-82
2023/11/04 11:45:57;;;;;;;7.50;2.20;;;20.00;58.70;;;;;;6155370;23;20105;-82
2023/11/04 11:48:23;;;;;;;7.22;1.13;;;20.00;58.80;;;;;;6155416;23;20076;-81
2023/11/04 11:50:49;;;;;;;6.50;1.20;;;20.00;58.30;;;;;;6155795;23;20488;-83
2023/11/04 11:53:15;;;;;;;8.15;1.50;;;20.00;58.10;;;;;;6155071;23;20025;-81
2023/11/04 11:55:42;;;;;;;4.22;1.10;;;20.00;57.70;;;;;;6155329;23;20059;-82
2023/11/04 11:58:12;;;;;;;4.78;1.50;;;20.00;57.60;;;;;;6155782;23;20072;-82
2023/11/04 12:00:38;;;;;;;7.15;1.60;;;20.00;57.70;;;;;;6157367;23;20052;-82
2023/11/04 12:03:05;;;;;;;6.88;2.03;;;20.00;58.00;;;;;;6155018;23;20013;-83
2023/11/04 12:05:32;;;;;;;7.95;1.70;;;20.00;57.80;;;;;;6155360;23;20076;-83
2023/11/04 12:07:58;;;;;;;8.55;2.30;;;20.00;57.50;;;;;;6157276;23;20424;-82
2023/11/04 12:10:25;;;;;;;8.38;2.53;;;20.10;57.70;;;;;;6155762;23;20288;-82
2023/11/04 12:12:51;;;;;;;8.35;2.95;;;20.20;57.50;;;;;;6154925;23;20005;-83
2023/11/04 12:15:17;;;;;;;10.27;2.50;;;20.40;57.60;;;;;;6155238;23;20041;-82
2023/11/04 12:17:53;;;;;;;7.18;1.80;;;20.40;57.40;;;;;;6155035;23;20005;-82
2023/11/04 12:20:26;;;;;;;4.85;1.77;;;20.50;57.30;;;;;;6155028;23;20005;-83
2023/11/04 12:22:53;;;;;;;6.38;1.48;;;20.50;57.20;;;;;;6155326;23;20057;-82
2023/11/04 12:25:19;;;;;;;7.45;2.10;;;20.60;57.30;;;;;;6155096;23;20001;-84
2023/11/04 12:27:48;;;;;;;8.80;1.70;;;20.50;57.50;;;;;;6156509;23;19998;-78
2023/11/04 12:30:18;;;;;;;6.30;1.65;;;20.40;57.10;;;;;;6156648;23;20064;-82
2023/11/04 12:32:52;;;;;;;3.95;1.10;;;20.40;56.90;;;;;;6157172;23;20001;-83
2023/11/04 12:35:19;;;;;;;9.43;1.75;;;20.40;56.80;;;;;;6155537;23;20021;-70
2023/11/04 12:37:47;;;;;;;12.73;2.05;;;20.40;57.10;;;;;;6156478;23;20005;-69
2023/11/04 12:40:13;;;;;;;6.35;1.70;;;20.50;57.30;;;;;;6156154;23;20002;-69